Time;durP1;ratioP1;P1;durP2;ratioP2;P2;SDS_P1;SDS_P2;PMS_P1;PMS_P2;Temp;Humidity;BMP_temperature;BMP_pressure;BME280_temperature;BME280_humidity;BME280_pressure;Samples;Min_cycle;Max_cycle;Signal;HPM_P1;HPM_P2
2023/10/14 00:00:39;;;;;;;20.17;6.93;;;12.80;99.90;;;;;;4403600;28;658684;-67
2023/10/14 00:03:33;;;;;;;19.77;7.13;;;12.80;99.90;;;;;;4425800;28;658009;-67
2023/10/14 00:06:20;;;;;;;17.10;7.23;;;12.80;99.90;;;;;;4377838;28;659456;-67
2023/10/14 00:09:11;;;;;;;19.03;8.17;;;12.70;99.90;;;;;;4415324;28;657489;-67
2023/10/14 00:12:03;;;;;;;23.67;7.47;;;12.80;99.90;;;;;;4405218;28;657604;-67
2023/10/14 00:14:53;;;;;;;16.70;7.30;;;12.80;99.90;;;;;;4399983;28;658835;-67
2023/10/14 00:17:42;;;;;;;17.23;6.73;;;12.80;99.90;;;;;;4406998;28;659594;-67
2023/10/14 00:20:34;;;;;;;20.87;7.03;;;12.80;99.90;;;;;;4409887;28;658711;-67
2023/10/14 00:23:24;;;;;;;21.97;7.37;;;12.80;99.90;;;;;;4404817;28;657883;-67
2023/10/14 00:26:16;;;;;;;17.30;6.83;;;12.70;99.90;;;;;;4404252;28;658738;-67
2023/10/14 00:29:18;;;;;;;16.60;7.07;;;12.60;99.90;;;;;;4380940;28;658570;-67
2023/10/14 00:32:05;;;;;;;18.87;6.73;;;12.60;99.90;;;;;;4404908;28;657924;-67
2023/10/14 00:34:53;;;;;;;17.27;7.20;;;12.50;99.90;;;;;;4404929;28;657186;-67
2023/10/14 00:37:40;;;;;;;17.73;7.20;;;12.50;99.90;;;;;;4426877;28;658303;-67
2023/10/14 00:40:27;;;;;;;16.23;6.60;;;12.50;99.90;;;;;;4407872;28;658819;-67
2023/10/14 00:43:16;;;;;;;21.57;7.07;;;12.50;99.90;;;;;;4430904;28;658377;-67
2023/10/14 00:46:06;;;;;;;13.52;7.07;;;12.60;99.90;;;;;;4401122;28;657386;-67
2023/10/14 00:48:58;;;;;;;19.30;6.57;;;12.60;99.90;;;;;;4404708;28;657626;-67
2023/10/14 00:51:49;;;;;;;17.47;6.63;;;12.60;99.90;;;;;;4400548;28;658832;-67
2023/10/14 00:54:51;;;;;;;15.80;6.83;;;12.60;99.90;;;;;;4405222;28;658801;-67
2023/10/14 00:57:39;;;;;;;20.83;6.40;;;12.60;99.90;;;;;;4380905;28;658119;-67
2023/10/14 01:00:37;;;;;;;13.17;6.20;;;12.50;99.90;;;;;;4426885;28;657835;-67
2023/10/14 01:03:25;;;;;;;19.27;6.80;;;12.50;99.90;;;;;;4408047;28;658515;-67
2023/10/14 01:06:22;;;;;;;12.40;5.50;;;12.50;99.90;;;;;;4406229;28;657424;-67
2023/10/14 01:09:13;;;;;;;15.70;5.83;;;12.50;99.90;;;;;;4407656;28;657285;-67
2023/10/14 01:12:14;;;;;;;13.07;4.80;;;12.90;99.90;;;;;;4402527;28;657884;-67
2023/10/14 01:15:10;;;;;;;12.07;4.07;;;13.30;99.90;;;;;;4403721;28;657803;-67
2023/10/14 01:18:00;;;;;;;13.63;4.50;;;13.60;99.90;;;;;;4386583;28;657827;-67
2023/10/14 01:20:48;;;;;;;9.80;4.30;;;13.80;99.90;;;;;;4403434;28;657882;-67
2023/10/14 01:23:37;;;;;;;17.93;5.07;;;13.90;99.90;;;;;;4424392;28;657322;-67
2023/10/14 01:26:25;;;;;;;11.13;4.40;;;13.90;99.90;;;;;;4407535;28;660713;-67
2023/10/14 01:29:15;;;;;;;17.80;5.23;;;13.80;99.90;;;;;;4407654;28;657435;-67
2023/10/14 01:32:25;;;;;;;13.10;4.40;;;13.70;99.90;;;;;;4427961;28;657789;-67
2023/10/14 01:35:23;;;;;;;15.57;4.53;;;13.50;99.90;;;;;;4414437;28;657633;-67
2023/10/14 01:38:10;;;;;;;12.60;4.40;;;13.40;99.90;;;;;;4404342;28;658202;-67
2023/10/14 01:41:03;;;;;;;14.70;5.13;;;13.30;99.90;;;;;;4410971;28;658403;-67
2023/10/14 01:43:51;;;;;;;10.30;4.50;;;13.10;99.90;;;;;;4406261;28;658749;-67
2023/10/14 01:46:40;;;;;;;13.87;5.43;;;13.10;99.90;;;;;;4405843;28;657418;-66
2023/10/14 01:49:28;;;;;;;18.73;4.60;;;13.00;99.90;;;;;;4414866;28;657649;-67
2023/10/14 01:52:19;;;;;;;15.60;4.80;;;13.00;99.90;;;;;;4424996;28;658978;-67
2023/10/14 01:55:08;;;;;;;12.98;4.38;;;13.00;99.90;;;;;;4402173;28;658242;-66
2023/10/14 01:57:58;;;;;;;13.23;5.00;;;12.80;99.90;;;;;;4394948;28;659302;-67
2023/10/14 02:00:46;;;;;;;10.47;4.73;;;12.70;99.90;;;;;;4398890;28;658164;-67
2023/10/14 02:03:41;;;;;;;11.43;4.50;;;12.60;99.90;;;;;;4398231;28;657755;-66
2023/10/14 02:06:30;;;;;;;11.63;4.40;;;12.50;99.90;;;;;;4376678;28;658432;-67
2023/10/14 02:09:18;;;;;;;11.57;4.60;;;12.30;99.90;;;;;;4403140;28;657737;-67
2023/10/14 02:12:06;;;;;;;16.90;5.17;;;12.20;99.90;;;;;;4421529;28;658434;-67
2023/10/14 02:14:58;;;;;;;12.40;4.87;;;12.20;99.90;;;;;;4406409;28;657696;-67
2023/10/14 02:17:47;;;;;;;9.97;4.30;;;12.00;99.90;;;;;;4401804;28;657878;-67
2023/10/14 02:20:38;;;;;;;16.23;4.83;;;11.90;99.90;;;;;;4400600;28;657251;-67
2023/10/14 02:23:26;;;;;;;16.27;5.23;;;11.80;99.90;;;;;;4401989;28;658456;-67
2023/10/14 02:26:16;;;;;;;12.18;4.70;;;11.80;99.90;;;;;;4398638;28;657580;-66
2023/10/14 02:29:07;;;;;;;11.77;4.87;;;11.70;99.90;;;;;;4401484;28;658286;-66
2023/10/14 02:32:00;;;;;;;10.87;4.83;;;11.60;99.90;;;;;;4405781;28;657616;-67
2023/10/14 02:34:47;;;;;;;13.97;5.20;;;11.60;99.90;;;;;;4388976;28;657576;-67
2023/10/14 02:37:37;;;;;;;13.47;4.57;;;11.60;99.90;;;;;;4429806;28;657884;-67
2023/10/14 02:40:26;;;;;;;13.90;5.00;;;11.60;99.90;;;;;;4403733;28;658722;-66
2023/10/14 02:43:16;;;;;;;15.07;4.83;;;11.60;99.90;;;;;;4404723;28;657599;-67
2023/10/14 02:46:10;;;;;;;11.40;4.33;;;11.60;99.90;;;;;;4405875;28;660101;-67
2023/10/14 02:49:06;;;;;;;17.47;4.47;;;11.60;99.90;;;;;;4404794;28;658349;-67
2023/10/14 02:52:01;;;;;;;16.33;4.23;;;11.60;99.90;;;;;;4379551;28;658798;-67
2023/10/14 02:54:55;;;;;;;8.47;4.33;;;11.50;99.90;;;;;;4383391;28;658142;-66
2023/10/14 02:57:45;;;;;;;12.27;4.23;;;11.50;99.90;;;;;;4390955;28;656663;-67
2023/10/14 03:00:33;;;;;;;14.87;4.70;;;11.50;99.90;;;;;;4404244;28;657714;-67
2023/10/14 03:03:21;;;;;;;11.13;4.73;;;11.50;99.90;;;;;;4422749;28;658698;-66
2023/10/14 03:06:14;;;;;;;13.03;4.40;;;11.60;99.90;;;;;;4405597;28;658610;-67
2023/10/14 03:09:03;;;;;;;19.63;4.10;;;11.60;99.90;;;;;;4403066;28;658804;-67
2023/10/14 03:11:52;;;;;;;16.40;4.73;;;11.70;99.90;;;;;;4422777;28;657298;-67
2023/10/14 03:14:40;;;;;;;11.03;4.00;;;12.00;99.90;;;;;;4404328;28;657887;-66
2023/10/14 03:17:41;;;;;;;9.80;3.30;;;12.40;99.90;;;;;;4406905;28;657544;-67
2023/10/14 03:20:44;;;;;;;7.37;3.03;;;12.80;99.90;;;;;;4381530;28;657113;-66
2023/10/14 03:23:33;;;;;;;12.80;3.93;;;14.10;99.90;;;;;;4402519;28;656917;-67
2023/10/14 03:26:24;;;;;;;16.03;3.43;;;15.00;99.90;;;;;;4398647;28;658379;-66
2023/10/14 03:29:16;;;;;;;9.87;3.20;;;15.10;99.90;;;;;;4373400;28;658519;-67
2023/10/14 03:32:03;;;;;;;9.33;3.33;;;15.30;99.90;;;;;;4407748;28;657351;-66
2023/10/14 03:34:52;;;;;;;10.10;3.30;;;15.60;99.90;;;;;;4424117;28;656948;-66
2023/10/14 03:37:52;;;;;;;9.73;3.47;;;15.80;99.90;;;;;;4406828;28;658655;-67
2023/10/14 03:40:53;;;;;;;9.53;3.07;;;15.60;99.90;;;;;;4405267;28;656116;-66
2023/10/14 03:43:48;;;;;;;10.60;3.13;;;15.40;99.90;;;;;;4401014;28;656866;-66
2023/10/14 03:46:35;;;;;;;15.27;3.23;;;15.50;99.90;;;;;;4401672;28;658016;-66
2023/10/14 03:49:25;;;;;;;12.47;3.47;;;15.50;99.90;;;;;;4405256;28;657494;-66
2023/10/14 03:52:13;;;;;;;11.93;3.80;;;15.70;99.90;;;;;;4408120;28;657758;-66
2023/10/14 03:55:00;;;;;;;12.17;3.53;;;15.60;99.90;;;;;;4426851;28;658123;-66
2023/10/14 03:57:51;;;;;;;10.50;3.13;;;15.80;99.90;;;;;;4404794;28;658389;-66
2023/10/14 04:00:38;;;;;;;11.93;2.93;;;16.10;99.90;;;;;;4404425;28;657307;-66
2023/10/14 04:03:39;;;;;;;6.73;2.80;;;16.30;99.90;;;;;;4426190;28;658223;-66
2023/10/14 04:06:26;;;;;;;9.60;3.10;;;16.50;99.90;;;;;;4399839;28;656584;-66
2023/10/14 04:09:21;;;;;;;11.63;3.20;;;16.80;99.90;;;;;;4408069;28;657577;-66
2023/10/14 04:12:11;;;;;;;13.20;3.00;;;16.80;99.90;;;;;;4376462;28;659090;-66
2023/10/14 04:15:06;;;;;;;7.70;3.33;;;16.80;99.90;;;;;;4406862;28;659793;-66
2023/10/14 04:17:55;;;;;;;13.33;3.20;;;16.80;99.90;;;;;;4385365;28;656700;-66
2023/10/14 04:20:46;;;;;;;8.30;2.83;;;16.90;99.90;;;;;;4422774;28;658116;-66
2023/10/14 04:23:42;;;;;;;9.53;3.40;;;17.20;99.90;;;;;;4405836;28;657017;-66
2023/10/14 04:26:34;;;;;;;11.00;3.27;;;17.10;99.90;;;;;;4380408;28;656712;-66
2023/10/14 04:29:34;;;;;;;10.77;3.40;;;17.10;99.90;;;;;;4403791;28;658375;-66
2023/10/14 04:32:27;;;;;;;11.10;3.37;;;16.90;99.90;;;;;;4398729;28;658154;-66
2023/10/14 04:35:19;;;;;;;9.93;3.37;;;16.60;99.90;;;;;;4406602;28;657903;-66
2023/10/14 04:38:17;;;;;;;20.77;3.90;;;16.20;99.90;;;;;;4401460;28;656820;-66
2023/10/14 04:41:04;;;;;;;10.07;3.67;;;16.20;99.90;;;;;;4405399;28;658899;-66
2023/10/14 04:44:00;;;;;;;13.07;3.70;;;15.90;99.90;;;;;;4424565;28;658069;-66
2023/10/14 04:46:54;;;;;;;11.57;3.60;;;15.50;99.90;;;;;;4384566;28;658097;-66
2023/10/14 04:49:43;;;;;;;10.65;3.55;;;15.20;99.90;;;;;;4398642;28;658262;-66
2023/10/14 04:52:35;;;;;;;16.67;4.43;;;14.80;99.90;;;;;;4398981;28;658490;-66
2023/10/14 04:55:32;;;;;;;14.17;4.87;;;14.40;99.90;;;;;;4383944;28;657674;-66
2023/10/14 04:58:24;;;;;;;16.93;4.13;;;14.20;99.90;;;;;;4377228;28;658008;-66
2023/10/14 05:01:17;;;;;;;11.83;3.70;;;13.80;99.90;;;;;;4408661;28;657985;-66
2023/10/14 05:04:08;;;;;;;21.27;4.23;;;13.70;99.90;;;;;;4407972;28;657873;-66
2023/10/14 05:07:03;;;;;;;12.27;4.27;;;13.30;99.90;;;;;;4404977;28;658308;-66
2023/10/14 05:09:57;;;;;;;13.13;4.57;;;13.30;99.90;;;;;;4403629;28;657725;-66
2023/10/14 05:12:51;;;;;;;17.93;4.90;;;12.80;99.90;;;;;;4379020;28;657940;-66
2023/10/14 05:15:42;;;;;;;14.43;4.33;;;12.70;99.90;;;;;;4404099;28;658336;-66
2023/10/14 05:18:30;;;;;;;19.07;4.67;;;12.70;99.90;;;;;;4401351;28;658528;-66
2023/10/14 05:21:35;;;;;;;10.97;4.13;;;12.60;99.90;;;;;;4423240;28;658383;-66
2023/10/14 05:24:28;;;;;;;16.03;5.00;;;12.60;99.90;;;;;;4393557;28;658361;-66
2023/10/14 05:27:17;;;;;;;13.57;5.53;;;13.90;99.90;;;;;;4402178;28;658500;-66
2023/10/14 05:30:07;;;;;;;14.07;5.30;;;14.40;99.90;;;;;;4405218;28;659330;-66
2023/10/14 05:32:54;;;;;;;14.87;5.07;;;14.70;99.90;;;;;;4403651;28;658331;-66
2023/10/14 05:35:42;;;;;;;14.27;5.30;;;14.60;99.90;;;;;;4425483;28;658091;-66
2023/10/14 05:38:29;;;;;;;16.37;4.73;;;14.50;99.90;;;;;;4400857;28;658464;-66
2023/10/14 05:41:18;;;;;;;11.80;4.70;;;14.60;99.90;;;;;;4426875;28;658168;-66
2023/10/14 05:44:07;;;;;;;12.70;4.87;;;14.50;99.90;;;;;;4409485;28;657582;-66
2023/10/14 05:46:55;;;;;;;12.93;4.97;;;14.60;99.90;;;;;;4407950;28;658322;-66
2023/10/14 05:49:43;;;;;;;12.13;4.93;;;14.70;99.90;;;;;;4423191;28;657960;-66
2023/10/14 05:52:30;;;;;;;10.67;5.13;;;14.60;99.90;;;;;;4429723;28;658499;-66
2023/10/14 05:55:19;;;;;;;10.93;4.60;;;14.50;99.90;;;;;;4406925;28;658889;-66
2023/10/14 05:58:08;;;;;;;14.60;6.00;;;14.70;99.90;;;;;;4432316;28;657541;-66
2023/10/14 06:00:56;;;;;;;14.32;5.53;;;15.10;99.90;;;;;;4405600;28;658669;-66
2023/10/14 06:03:43;;;;;;;15.27;5.60;;;15.10;99.90;;;;;;4408397;28;657639;-66
2023/10/14 06:06:31;;;;;;;14.00;6.47;;;14.90;99.90;;;;;;4424998;28;659290;-66
2023/10/14 06:09:19;;;;;;;11.27;5.30;;;14.90;99.90;;;;;;4408945;28;658166;-66
2023/10/14 06:12:12;;;;;;;11.53;5.77;;;14.90;99.90;;;;;;4425732;28;658273;-66
2023/10/14 06:15:01;;;;;;;18.87;6.60;;;14.90;99.90;;;;;;4378595;28;658175;-66
2023/10/14 06:17:48;;;;;;;14.17;6.00;;;14.90;99.90;;;;;;4407072;28;657944;-66
2023/10/14 06:20:36;;;;;;;15.30;6.20;;;14.90;99.90;;;;;;4429648;28;658291;-66
2023/10/14 06:23:26;;;;;;;15.23;5.80;;;15.00;99.90;;;;;;4406880;28;657217;-65
2023/10/14 06:26:16;;;;;;;18.70;5.93;;;15.10;99.90;;;;;;4406117;28;657526;-66
2023/10/14 06:29:05;;;;;;;13.07;6.30;;;15.20;99.90;;;;;;4405731;28;660116;-66
2023/10/14 06:31:54;;;;;;;14.23;6.23;;;15.30;99.90;;;;;;4424058;28;657572;-66
2023/10/14 06:34:42;;;;;;;14.27;6.37;;;15.30;99.90;;;;;;4421011;28;657445;-66
2023/10/14 06:37:40;;;;;;;13.57;6.00;;;15.30;99.90;;;;;;4407167;28;657903;-66
2023/10/14 06:40:35;;;;;;;17.23;6.53;;;15.40;99.90;;;;;;4397723;28;658140;-66
2023/10/14 06:43:25;;;;;;;15.83;6.80;;;15.70;99.90;;;;;;4389066;28;657341;-65
2023/10/14 06:46:13;;;;;;;17.73;7.27;;;16.00;99.90;;;;;;4415468;28;658384;-66
2023/10/14 06:49:01;;;;;;;16.57;7.27;;;16.10;99.90;;;;;;4422775;28;658881;-66
2023/10/14 06:51:51;;;;;;;15.67;7.70;;;16.40;99.90;;;;;;4405185;28;657429;-66
2023/10/14 06:54:41;;;;;;;14.57;7.27;;;16.60;99.90;;;;;;4409150;28;657642;-66
2023/10/14 06:57:28;;;;;;;15.17;7.13;;;16.70;99.90;;;;;;4407636;28;657500;-66
2023/10/14 07:00:25;;;;;;;16.75;7.82;;;16.80;99.90;;;;;;4423963;28;658262;-66
2023/10/14 07:03:13;;;;;;;20.00;8.03;;;17.00;99.90;;;;;;4388109;28;657282;-66
2023/10/14 07:06:04;;;;;;;13.53;7.63;;;17.10;99.90;;;;;;4428067;28;657855;-66
2023/10/14 07:08:52;;;;;;;16.63;7.97;;;17.30;99.90;;;;;;4394698;28;657995;-66
2023/10/14 07:11:39;;;;;;;17.40;7.57;;;17.50;99.90;;;;;;4405945;28;658382;-66
2023/10/14 07:14:28;;;;;;;16.90;7.20;;;17.60;99.90;;;;;;4428404;28;657439;-66
2023/10/14 07:17:22;;;;;;;17.77;8.30;;;17.80;99.90;;;;;;4397060;28;658220;-66
2023/10/14 07:20:11;;;;;;;16.00;7.17;;;18.00;99.90;;;;;;4389884;28;658023;-66
2023/10/14 07:23:00;;;;;;;15.80;8.07;;;18.20;99.90;;;;;;4407189;28;657570;-66
2023/10/14 07:25:48;;;;;;;16.80;8.00;;;18.20;99.90;;;;;;4397949;28;657682;-66
2023/10/14 07:28:35;;;;;;;17.07;7.60;;;18.40;99.90;;;;;;4428552;28;658435;-66
2023/10/14 07:31:23;;;;;;;17.90;7.93;;;18.60;99.90;;;;;;4416435;28;657718;-66
2023/10/14 07:34:10;;;;;;;22.03;7.70;;;18.70;99.90;;;;;;4429235;28;658904;-66
2023/10/14 07:36:58;;;;;;;18.07;7.90;;;18.90;99.90;;;;;;4411461;28;657546;-66
2023/10/14 07:39:52;;;;;;;14.20;7.57;;;19.00;99.90;;;;;;4426619;28;658199;-66
2023/10/14 07:42:39;;;;;;;19.50;8.20;;;19.20;99.90;;;;;;4389024;28;658345;-66
2023/10/14 07:45:28;;;;;;;18.53;7.60;;;19.30;99.90;;;;;;4430804;28;657876;-66
2023/10/14 07:48:17;;;;;;;17.67;7.77;;;19.60;99.90;;;;;;4407906;28;657442;-66
2023/10/14 07:51:06;;;;;;;21.20;7.80;;;19.80;99.90;;;;;;4407617;28;658640;-66
2023/10/14 07:53:53;;;;;;;12.97;7.63;;;20.00;99.90;;;;;;4411214;28;657655;-65
2023/10/14 07:56:43;;;;;;;15.00;7.83;;;20.00;99.90;;;;;;4434387;28;659592;-66
2023/10/14 07:59:34;;;;;;;23.17;8.17;;;20.10;99.90;;;;;;4407609;28;658277;-66
2023/10/14 08:02:21;;;;;;;18.70;8.23;;;20.40;99.90;;;;;;4405803;28;657641;-66
2023/10/14 08:05:09;;;;;;;16.83;8.07;;;20.60;99.90;;;;;;4410878;28;657401;-66
2023/10/14 08:07:57;;;;;;;14.90;7.87;;;20.50;99.90;;;;;;4430274;28;658022;-66
2023/10/14 08:10:45;;;;;;;26.63;10.43;;;20.60;99.90;;;;;;4410376;28;657936;-66
2023/10/14 08:13:34;;;;;;;19.20;9.20;;;21.00;99.90;;;;;;4406062;28;659546;-66
2023/10/14 08:16:22;;;;;;;19.37;7.73;;;20.80;99.90;;;;;;4420491;28;658701;-66
2023/10/14 08:19:10;;;;;;;17.23;7.57;;;21.00;99.90;;;;;;4406916;28;659223;-66
2023/10/14 08:21:57;;;;;;;17.63;8.07;;;21.10;99.90;;;;;;4414194;28;658836;-66
2023/10/14 08:24:45;;;;;;;16.17;6.57;;;21.20;99.90;;;;;;4423873;28;658337;-66
2023/10/14 08:27:33;;;;;;;14.17;7.57;;;21.20;99.90;;;;;;4401051;28;657593;-66
2023/10/14 08:30:24;;;;;;;22.77;9.93;;;21.50;99.90;;;;;;4432131;28;657257;-65
2023/10/14 08:33:11;;;;;;;20.17;8.10;;;21.60;99.90;;;;;;4410862;28;657648;-66
2023/10/14 08:35:58;;;;;;;15.77;7.77;;;21.70;99.90;;;;;;4409816;28;658015;-66
2023/10/14 08:38:47;;;;;;;19.67;8.53;;;21.90;99.90;;;;;;4432573;28;657917;-66
2023/10/14 08:41:36;;;;;;;17.70;8.20;;;22.00;99.90;;;;;;4409085;28;658215;-66
2023/10/14 08:44:27;;;;;;;16.50;7.47;;;22.10;99.90;;;;;;4412085;28;657656;-66
2023/10/14 08:47:15;;;;;;;15.53;7.07;;;22.20;99.90;;;;;;4413407;28;657928;-65
2023/10/14 08:50:03;;;;;;;12.50;5.20;;;21.80;99.90;;;;;;4402551;28;657944;-65
2023/10/14 08:52:53;;;;;;;15.67;7.63;;;21.90;99.90;;;;;;4430226;28;658920;-65
2023/10/14 08:55:41;;;;;;;17.97;7.40;;;22.10;99.90;;;;;;4395554;28;659368;-65
2023/10/14 08:58:28;;;;;;;15.80;6.00;;;22.10;99.90;;;;;;4404901;28;657350;-65
2023/10/14 09:01:16;;;;;;;13.50;7.00;;;22.10;99.90;;;;;;4432118;28;658183;-65
2023/10/14 09:04:08;;;;;;;14.80;6.53;;;22.50;99.90;;;;;;4413721;28;657148;-65
2023/10/14 09:07:01;;;;;;;14.97;6.90;;;22.50;99.90;;;;;;4404344;28;658946;-65
2023/10/14 09:09:51;;;;;;;18.15;7.32;;;22.30;99.90;;;;;;4386397;28;658529;-65
2023/10/14 09:12:39;;;;;;;20.93;7.40;;;22.50;99.90;;;;;;4413252;28;658118;-65
2023/10/14 09:15:27;;;;;;;9.47;4.80;;;22.70;99.90;;;;;;4431319;28;658190;-65
2023/10/14 09:18:16;;;;;;;15.17;7.27;;;22.70;96.00;;;;;;4410259;28;656794;-65
2023/10/14 09:21:05;;;;;;;14.13;6.43;;;22.70;98.10;;;;;;4413030;28;657765;-65
2023/10/14 09:23:52;;;;;;;18.37;7.63;;;23.10;98.00;;;;;;4413388;28;658044;-65
2023/10/14 09:26:43;;;;;;;39.63;13.13;;;22.90;97.30;;;;;;4432868;28;658466;-65
2023/10/14 09:29:30;;;;;;;21.37;8.43;;;22.70;96.80;;;;;;4406938;28;659776;-65
2023/10/14 09:32:18;;;;;;;14.90;6.93;;;22.70;98.30;;;;;;4410774;28;657834;-65
2023/10/14 09:35:05;;;;;;;12.23;6.90;;;22.80;94.80;;;;;;4433003;28;657844;-65
2023/10/14 09:37:54;;;;;;;14.80;6.77;;;23.30;94.60;;;;;;4413417;28;657614;-65
2023/10/14 09:40:43;;;;;;;32.13;11.07;;;22.70;93.00;;;;;;4425913;28;657654;-65
2023/10/14 09:43:30;;;;;;;17.27;8.25;;;23.20;98.30;;;;;;4406086;28;658886;-65
2023/10/14 09:46:20;;;;;;;18.55;8.15;;;23.20;92.50;;;;;;4412886;28;657797;-64
2023/10/14 09:49:10;;;;;;;14.52;3.95;;;23.40;92.00;;;;;;4431157;28;657113;-65
2023/10/14 09:51:59;;;;;;;9.80;4.80;;;23.60;89.30;;;;;;4396758;28;657783;-65
2023/10/14 09:54:49;;;;;;;12.73;6.45;;;23.20;88.40;;;;;;4430246;28;657115;-64
2023/10/14 09:57:38;;;;;;;12.15;4.78;;;23.00;92.60;;;;;;4407938;28;657900;-64
2023/10/14 10:00:25;;;;;;;20.77;6.90;;;23.10;89.50;;;;;;4400920;28;658481;-64
2023/10/14 10:03:12;;;;;;;17.88;6.93;;;23.20;90.30;;;;;;4405478;28;657462;-65
2023/10/14 10:06:10;;;;;;;12.82;6.47;;;23.00;90.40;;;;;;4428632;28;659057;-64
2023/10/14 10:09:17;;;;;;;14.70;6.65;;;22.80;88.70;;;;;;4401879;28;658621;-64
2023/10/14 10:12:08;;;;;;;13.80;6.63;;;23.00;90.60;;;;;;4374459;28;658062;-64
2023/10/14 10:14:58;;;;;;;14.25;5.60;;;23.20;90.70;;;;;;4408728;28;657663;-64
2023/10/14 10:17:47;;;;;;;11.18;6.25;;;23.70;92.30;;;;;;4408775;28;658186;-65
2023/10/14 10:20:36;;;;;;;16.08;6.43;;;24.60;90.20;;;;;;4402514;28;658518;-64
2023/10/14 10:23:24;;;;;;;12.02;5.00;;;24.20;88.50;;;;;;4412483;28;658443;-64
2023/10/14 10:26:14;;;;;;;10.07;5.50;;;23.90;80.60;;;;;;4424180;28;657583;-64
2023/10/14 10:29:07;;;;;;;9.60;4.32;;;23.80;86.20;;;;;;4408305;28;659255;-64
2023/10/14 10:32:07;;;;;;;14.38;6.45;;;23.70;81.40;;;;;;4410378;28;657289;-64
2023/10/14 10:35:13;;;;;;;7.70;4.53;;;23.80;86.10;;;;;;4385459;28;657782;-64
2023/10/14 10:38:01;;;;;;;15.77;6.47;;;24.20;80.30;;;;;;4402923;28;656716;-64
2023/10/14 10:40:49;;;;;;;12.70;6.15;;;23.90;81.50;;;;;;4400114;28;658692;-64
2023/10/14 10:43:39;;;;;;;20.55;6.65;;;23.80;82.60;;;;;;4405520;28;658518;-64
2023/10/14 10:46:32;;;;;;;17.45;6.97;;;23.90;83.10;;;;;;4430846;28;657631;-64
2023/10/14 10:49:59;;;;;;;13.82;6.60;;;23.50;83.40;;;;;;4411907;28;658772;-64
2023/10/14 10:52:54;;;;;;;13.90;6.90;;;24.00;86.10;;;;;;4401794;28;657696;-64
2023/10/14 10:55:42;;;;;;;17.27;6.78;;;24.00;87.30;;;;;;4405656;28;657831;-64
2023/10/14 10:58:30;;;;;;;14.73;6.78;;;23.90;87.50;;;;;;4408668;28;658445;-64
2023/10/14 11:01:19;;;;;;;12.95;6.95;;;24.00;85.30;;;;;;4418604;28;658165;-64
2023/10/14 11:04:09;;;;;;;14.40;5.95;;;23.70;83.90;;;;;;4434670;28;658121;-64
2023/10/14 11:06:56;;;;;;;14.15;6.32;;;24.00;86.40;;;;;;4407420;28;657783;-64
2023/10/14 11:09:43;;;;;;;16.10;7.05;;;23.90;84.90;;;;;;4411873;28;657455;-64
2023/10/14 11:12:34;;;;;;;15.20;7.50;;;23.00;94.20;;;;;;4430873;28;659002;-64
2023/10/14 11:15:22;;;;;;;10.77;5.93;;;23.40;92.60;;;;;;4407565;28;657674;-64
2023/10/14 11:18:10;;;;;;;14.75;7.75;;;23.20;90.10;;;;;;4401183;28;658690;-65
2023/10/14 11:20:59;;;;;;;17.58;8.48;;;23.20;91.60;;;;;;4411836;28;658329;-65
2023/10/14 11:23:46;;;;;;;19.75;8.98;;;23.00;93.40;;;;;;4430095;28;657854;-64
2023/10/14 11:26:34;;;;;;;17.23;5.22;;;23.20;95.00;;;;;;4402591;28;658053;-64
2023/10/14 11:29:23;;;;;;;11.57;6.00;;;23.20;90.40;;;;;;4428221;28;657723;-63
2023/10/14 11:32:12;;;;;;;13.43;7.50;;;22.70;90.70;;;;;;4404361;28;658688;-63
2023/10/14 11:35:00;;;;;;;20.00;7.03;;;22.80;93.20;;;;;;4406876;28;659083;-63
2023/10/14 11:37:52;;;;;;;13.50;7.03;;;22.60;91.20;;;;;;4429061;28;657425;-63
2023/10/14 11:40:41;;;;;;;14.43;6.33;;;22.60;93.90;;;;;;4406396;28;658882;-64
2023/10/14 11:43:30;;;;;;;18.93;8.80;;;22.40;92.80;;;;;;4410311;28;657164;-63
2023/10/14 11:46:18;;;;;;;22.57;9.77;;;22.30;94.00;;;;;;4429411;28;657486;-64
2023/10/14 11:49:09;;;;;;;20.40;7.10;;;22.10;97.00;;;;;;4430054;28;658668;-64
2023/10/14 11:51:56;;;;;;;16.33;6.37;;;21.90;98.30;;;;;;4407038;28;657493;-63
2023/10/14 11:54:45;;;;;;;9.37;5.27;;;22.00;98.60;;;;;;4408736;28;657509;-64
2023/10/14 11:57:33;;;;;;;18.63;6.73;;;22.10;96.10;;;;;;4411902;28;656964;-64
2023/10/14 12:00:21;;;;;;;17.80;7.00;;;22.00;98.80;;;;;;4430079;28;657218;-63
2023/10/14 12:03:08;;;;;;;15.40;6.97;;;21.80;99.50;;;;;;4407497;28;658476;-63
2023/10/14 12:05:57;;;;;;;21.27;7.40;;;22.10;99.90;;;;;;4430883;28;658184;-63
2023/10/14 12:08:45;;;;;;;18.13;6.90;;;22.20;99.90;;;;;;4414255;28;658065;-63
2023/10/14 12:11:41;;;;;;;14.30;7.03;;;22.50;99.70;;;;;;4418806;28;657772;-64
2023/10/14 12:14:28;;;;;;;12.67;6.77;;;22.90;97.40;;;;;;4411267;28;657475;-63
2023/10/14 12:17:15;;;;;;;13.23;6.73;;;23.10;95.60;;;;;;4433389;28;657898;-64
2023/10/14 12:20:10;;;;;;;14.43;7.33;;;23.10;99.40;;;;;;4405278;28;657481;-63
2023/10/14 12:22:57;;;;;;;11.77;7.07;;;23.10;94.60;;;;;;4401889;28;657463;-63
2023/10/14 12:25:46;;;;;;;13.53;6.37;;;22.80;97.20;;;;;;4430863;28;658770;-63
2023/10/14 12:28:35;;;;;;;13.40;6.70;;;22.50;98.80;;;;;;4411493;28;657692;-63
2023/10/14 12:31:25;;;;;;;19.33;7.17;;;22.40;99.30;;;;;;4422097;28;657788;-64
2023/10/14 12:34:13;;;;;;;16.10;6.47;;;22.40;98.20;;;;;;4428178;28;657746;-63
2023/10/14 12:37:00;;;;;;;15.23;6.70;;;22.10;99.80;;;;;;4432549;28;658102;-63
2023/10/14 12:39:53;;;;;;;11.83;6.00;;;22.20;99.90;;;;;;4412876;28;658124;-63
2023/10/14 12:42:46;;;;;;;12.67;6.67;;;22.00;99.90;;;;;;4406500;28;658686;-63
2023/10/14 12:45:36;;;;;;;20.70;7.73;;;22.00;99.90;;;;;;4386958;28;658256;-63
2023/10/14 12:48:24;;;;;;;17.40;7.57;;;22.00;99.90;;;;;;4397732;28;658696;-63
2023/10/14 12:51:12;;;;;;;16.87;7.80;;;22.00;99.90;;;;;;4429868;28;657479;-63
2023/10/14 12:54:00;;;;;;;17.20;7.47;;;22.00;99.90;;;;;;4414179;28;658705;-63
2023/10/14 12:56:50;;;;;;;25.47;7.60;;;22.00;99.90;;;;;;4408236;28;657552;-63
2023/10/14 12:59:40;;;;;;;19.57;7.77;;;21.80;99.90;;;;;;4411309;28;658297;-63
2023/10/14 13:02:29;;;;;;;14.93;7.20;;;21.70;99.90;;;;;;4413594;28;659117;-63
2023/10/14 13:05:18;;;;;;;19.13;7.60;;;21.80;99.90;;;;;;4430545;28;657728;-63
2023/10/14 13:08:06;;;;;;;17.30;7.27;;;21.70;99.90;;;;;;4409187;28;658457;-63
2023/10/14 13:10:54;;;;;;;13.60;6.90;;;21.50;99.90;;;;;;4413180;28;657471;-63
2023/10/14 13:13:41;;;;;;;15.60;5.93;;;21.60;99.90;;;;;;4432804;28;658169;-63
2023/10/14 13:16:31;;;;;;;18.97;6.80;;;21.60;99.90;;;;;;4410806;28;657463;-63
2023/10/14 13:19:23;;;;;;;17.20;6.90;;;21.50;99.90;;;;;;4409926;28;657602;-63
2023/10/14 13:22:12;;;;;;;11.67;4.83;;;21.40;99.90;;;;;;4408381;28;658454;-63
2023/10/14 13:25:01;;;;;;;14.30;6.73;;;21.60;99.90;;;;;;4408611;28;657475;-63
2023/10/14 13:27:51;;;;;;;18.73;6.93;;;21.50;99.90;;;;;;4408526;28;657456;-63
2023/10/14 13:30:45;;;;;;;9.67;4.03;;;21.50;99.90;;;;;;4413048;28;657984;-63
2023/10/14 13:33:32;;;;;;;13.77;5.30;;;21.40;99.90;;;;;;4405204;28;656615;-63
2023/10/14 13:36:21;;;;;;;9.70;4.67;;;21.40;99.90;;;;;;4409078;28;658837;-63
2023/10/14 13:39:08;;;;;;;15.47;7.00;;;21.30;99.90;;;;;;4412027;28;656308;-64
2023/10/14 13:41:55;;;;;;;15.33;6.77;;;21.10;99.90;;;;;;4421451;28;657766;-63
2023/10/14 13:44:43;;;;;;;15.20;6.77;;;21.20;99.90;;;;;;4405929;28;658656;-63
2023/10/14 13:47:30;;;;;;;16.50;7.30;;;20.90;99.90;;;;;;4430970;28;658784;-63
2023/10/14 13:50:21;;;;;;;14.83;6.30;;;20.90;99.90;;;;;;4411334;28;658373;-64
2023/10/14 13:53:17;;;;;;;12.53;6.23;;;20.80;99.90;;;;;;4412759;28;657398;-63
2023/10/14 13:56:04;;;;;;;17.30;6.63;;;20.90;99.90;;;;;;4412878;28;657842;-63
2023/10/14 13:58:52;;;;;;;20.57;6.80;;;20.90;99.90;;;;;;4425797;28;657734;-64
2023/10/14 14:01:39;;;;;;;13.87;6.60;;;20.90;99.90;;;;;;4405974;28;659534;-63
2023/10/14 14:04:27;;;;;;;17.20;7.03;;;20.80;99.90;;;;;;4431827;28;657709;-63
2023/10/14 14:07:15;;;;;;;14.53;7.10;;;20.70;99.90;;;;;;4409167;28;657756;-63
2023/10/14 14:10:08;;;;;;;13.90;6.50;;;20.50;99.90;;;;;;4433185;28;657012;-63
2023/10/14 14:12:56;;;;;;;12.63;6.40;;;20.50;99.90;;;;;;4408862;28;657738;-63
2023/10/14 14:15:43;;;;;;;16.23;7.20;;;20.40;99.90;;;;;;4413300;28;658414;-63
2023/10/14 14:18:30;;;;;;;17.60;6.97;;;20.30;99.90;;;;;;4430645;28;659018;-63
2023/10/14 14:21:18;;;;;;;13.37;6.87;;;20.20;99.90;;;;;;4411587;28;659232;-64
2023/10/14 14:24:06;;;;;;;15.27;6.63;;;20.30;99.90;;;;;;4429796;28;658452;-63